Time;durP1;ratioP1;P1;durP2;ratioP2;P2;SDS_P1;SDS_P2;PMS_P1;PMS_P2;Temp;Humidity;BMP_temperature;BMP_pressure;BME280_temperature;BME280_humidity;BME280_pressure;Samples;Min_cycle;Max_cycle;Signal;HPM_P1;HPM_P2
2021/12/08 00:01:19;;;;;;;0.00;0.00;;;4.80;99.90;;;;;;4957100;28;20121;-67
2021/12/08 00:03:47;;;;;;;0.03;0.03;;;4.70;99.90;;;;;;4972432;28;20119;-67
2021/12/08 00:06:13;;;;;;;0.00;0.00;;;4.70;99.90;;;;;;4974444;28;20121;-67
2021/12/08 00:08:45;;;;;;;0.00;0.00;;;4.60;99.90;;;;;;4972680;28;20122;-67
2021/12/08 00:13:56;;;;;;;0.00;0.00;;;4.50;99.90;;;;;;4973969;28;20039;-67
2021/12/08 00:16:22;;;;;;;0.20;0.20;;;4.40;99.90;;;;;;4973091;28;20027;-67
2021/12/08 00:18:49;;;;;;;0.10;0.10;;;4.40;99.90;;;;;;4974005;28;20034;-67
2021/12/08 00:21:17;;;;;;;0.10;0.10;;;4.30;99.90;;;;;;4973647;28;20121;-67
2021/12/08 00:23:44;;;;;;;2.25;2.08;;;4.40;99.90;;;;;;4973770;28;20073;-67
2021/12/08 00:26:10;;;;;;;0.00;0.00;;;4.30;99.90;;;;;;4972865;28;20050;-67
2021/12/08 00:28:36;;;;;;;0.10;0.10;;;4.30;99.90;;;;;;4972260;28;20388;-68
2021/12/08 00:31:05;;;;;;;0.10;0.10;;;4.30;99.90;;;;;;4973860;28;20092;-67
2021/12/08 00:33:33;;;;;;;0.10;0.10;;;4.30;99.90;;;;;;4972567;28;20113;-67
2021/12/08 00:36:02;;;;;;;0.15;0.15;;;4.30;99.90;;;;;;4973533;28;20395;-68
2021/12/08 00:38:29;;;;;;;0.10;0.10;;;4.30;99.90;;;;;;4972693;28;20031;-68
2021/12/08 00:40:55;;;;;;;0.43;0.43;;;4.30;99.90;;;;;;4973295;28;20037;-67
2021/12/08 00:43:22;;;;;;;0.05;0.05;;;4.30;99.90;;;;;;4973625;28;20023;-68
2021/12/08 00:45:49;;;;;;;0.00;0.00;;;4.40;99.90;;;;;;4972114;28;20054;-68
2021/12/08 00:48:15;;;;;;;0.10;0.10;;;4.60;99.90;;;;;;4972421;28;20039;-67
2021/12/08 00:50:42;;;;;;;0.05;0.05;;;4.70;99.90;;;;;;4973575;28;20078;-67
2021/12/08 00:53:09;;;;;;;0.00;0.00;;;4.70;99.90;;;;;;4973447;28;20500;-67
2021/12/08 00:55:36;;;;;;;0.10;0.10;;;4.70;99.90;;;;;;4972341;28;20038;-67
2021/12/08 00:58:02;;;;;;;0.15;0.15;;;4.70;99.90;;;;;;4973455;28;20169;-67
2021/12/08 01:00:43;;;;;;;0.00;0.00;;;4.70;99.90;;;;;;4973619;28;20035;-67
2021/12/08 01:03:10;;;;;;;0.00;0.00;;;4.70;99.90;;;;;;4972400;28;20057;-67
2021/12/08 01:05:42;;;;;;;0.10;0.10;;;4.70;99.90;;;;;;4973076;28;20046;-68
2021/12/08 01:08:09;;;;;;;0.10;0.10;;;4.70;99.90;;;;;;4973362;28;20031;-67
2021/12/08 01:10:36;;;;;;;2.65;0.70;;;4.60;99.90;;;;;;4971992;28;20089;-67
2021/12/08 01:13:07;;;;;;;1.52;0.47;;;4.60;99.90;;;;;;4972124;28;20035;-67
2021/12/08 01:15:36;;;;;;;0.00;0.00;;;4.70;99.90;;;;;;4974288;28;20648;-67
2021/12/08 01:18:03;;;;;;;0.00;0.00;;;4.70;99.90;;;;;;4975947;28;20472;-66
2021/12/08 01:20:28;;;;;;;0.08;0.08;;;4.60;99.90;;;;;;4975877;28;20034;-66
2021/12/08 01:22:55;;;;;;;0.43;0.43;;;4.50;99.90;;;;;;4975754;28;20518;-67
2021/12/08 01:25:20;;;;;;;0.00;0.00;;;4.50;99.90;;;;;;4975815;28;20027;-67
2021/12/08 01:27:46;;;;;;;0.20;0.20;;;4.50;99.90;;;;;;4976789;28;20110;-67
2021/12/08 01:30:13;;;;;;;0.00;0.00;;;4.40;99.90;;;;;;4977246;28;20039;-67
2021/12/08 01:32:39;;;;;;;0.00;0.00;;;4.30;99.90;;;;;;4975587;28;20062;-67
2021/12/08 01:35:07;;;;;;;0.00;0.00;;;4.30;99.90;;;;;;4976681;28;20108;-67
2021/12/08 01:37:34;;;;;;;0.00;0.00;;;4.20;99.90;;;;;;4975607;28;20125;-66
2021/12/08 01:40:02;;;;;;;0.10;0.10;;;4.20;99.90;;;;;;4975591;28;20117;-66
2021/12/08 01:42:35;;;;;;;0.10;0.10;;;4.20;99.90;;;;;;4976638;28;20027;-66
2021/12/08 01:47:48;;;;;;;0.00;0.00;;;4.00;99.90;;;;;;4976452;28;20066;-66
2021/12/08 01:50:14;;;;;;;0.10;0.10;;;3.90;99.90;;;;;;4975433;28;20081;-68
2021/12/08 01:52:41;;;;;;;0.10;0.10;;;3.80;99.90;;;;;;4975358;28;20054;-67
2021/12/08 01:55:10;;;;;;;0.00;0.00;;;3.80;99.90;;;;;;4976486;28;20085;-66
2021/12/08 01:57:39;;;;;;;0.00;0.00;;;3.80;99.90;;;;;;4959541;28;20118;-66
2021/12/08 02:00:24;;;;;;;0.10;0.10;;;3.80;99.90;;;;;;4976656;28;20435;-66
2021/12/08 02:02:50;;;;;;;0.10;0.10;;;3.80;99.90;;;;;;4959691;28;20027;-66
2021/12/08 02:05:17;;;;;;;0.10;0.10;;;3.80;99.90;;;;;;4975375;28;20037;-66
2021/12/08 02:07:43;;;;;;;0.25;0.25;;;3.80;99.90;;;;;;4976378;28;20038;-67
2021/12/08 02:10:11;;;;;;;0.10;0.10;;;3.80;99.90;;;;;;4976444;28;20034;-67
2021/12/08 02:12:40;;;;;;;0.20;0.20;;;3.80;99.90;;;;;;4975114;28;20026;-67
2021/12/08 02:15:12;;;;;;;0.08;0.08;;;3.80;99.90;;;;;;4959528;28;20055;-68
2021/12/08 02:17:39;;;;;;;0.00;0.00;;;3.80;99.90;;;;;;4974919;28;20117;-68
2021/12/08 02:20:09;;;;;;;0.10;0.10;;;3.80;99.90;;;;;;4974801;28;20038;-68
2021/12/08 02:22:35;;;;;;;0.10;0.10;;;3.80;99.90;;;;;;4976224;28;20026;-68
2021/12/08 02:25:01;;;;;;;0.25;0.25;;;3.80;99.90;;;;;;4974649;28;20392;-68
2021/12/08 02:27:27;;;;;;;0.10;0.10;;;3.80;99.90;;;;;;4974030;28;20042;-67
2021/12/08 02:29:55;;;;;;;0.10;0.10;;;3.90;99.90;;;;;;4975719;28;20110;-68
2021/12/08 02:46:43;;;;;;;0.10;0.10;;;3.90;99.90;;;;;;4975012;28;20031;-67
2021/12/08 02:48:41;;;;;;;0.00;0.00;;;4.00;99.90;;;;;;4975678;28;20198;-68
2021/12/08 02:51:07;;;;;;;0.00;0.00;;;4.00;99.90;;;;;;4974637;28;20482;-68
2021/12/08 02:53:33;;;;;;;0.10;0.10;;;4.00;99.90;;;;;;4975581;28;20397;-68
2021/12/08 02:55:59;;;;;;;0.00;0.00;;;4.00;99.90;;;;;;4958047;28;20081;-68
2021/12/08 02:58:25;;;;;;;0.00;0.00;;;4.00;99.90;;;;;;4974613;28;20038;-68
2021/12/08 03:00:58;;;;;;;0.10;0.10;;;4.00;99.90;;;;;;4975365;28;20039;-68
2021/12/08 03:03:25;;;;;;;0.10;0.10;;;4.00;99.90;;;;;;4975529;28;20031;-66
2021/12/08 03:05:51;;;;;;;0.10;0.10;;;4.10;99.90;;;;;;4957979;28;20038;-66
2021/12/08 03:08:17;;;;;;;0.00;0.00;;;4.10;99.90;;;;;;4975097;28;20122;-67
2021/12/08 03:10:47;;;;;;;0.17;0.17;;;4.10;99.90;;;;;;4973850;28;20070;-66
2021/12/08 03:13:13;;;;;;;0.30;0.30;;;4.10;99.90;;;;;;4973861;28;20407;-67
2021/12/08 03:15:43;;;;;;;0.00;0.00;;;4.10;99.90;;;;;;4974181;28;20102;-66
2021/12/08 03:18:09;;;;;;;0.10;0.10;;;4.10;99.90;;;;;;4973828;28;20471;-66
2021/12/08 03:20:43;;;;;;;0.00;0.00;;;4.10;99.90;;;;;;4973764;28;20089;-66
2021/12/08 03:23:15;;;;;;;0.00;0.00;;;4.20;99.90;;;;;;4975082;28;20094;-66
2021/12/08 03:25:44;;;;;;;0.08;0.08;;;4.30;99.90;;;;;;4974937;28;20097;-67
2021/12/08 03:28:25;;;;;;;0.03;0.03;;;4.20;99.90;;;;;;4973926;28;20106;-67
2021/12/08 03:31:04;;;;;;;0.10;0.10;;;4.10;99.90;;;;;;4973721;28;20050;-67
2021/12/08 03:33:30;;;;;;;0.00;0.00;;;4.10;99.90;;;;;;4959256;28;20039;-67
2021/12/08 03:35:57;;;;;;;0.70;0.55;;;4.20;99.90;;;;;;4974673;28;20054;-67
2021/12/08 03:38:25;;;;;;;0.15;0.15;;;4.20;99.90;;;;;;4973964;28;20549;-67
2021/12/08 03:40:52;;;;;;;0.10;0.10;;;4.20;99.90;;;;;;4974763;28;20038;-68
2021/12/08 03:43:18;;;;;;;0.10;0.10;;;4.20;99.90;;;;;;4973380;28;20042;-67
2021/12/08 03:45:49;;;;;;;0.10;0.10;;;4.10;99.90;;;;;;4973014;28;20451;-67
2021/12/08 03:48:26;;;;;;;0.10;0.10;;;4.00;99.90;;;;;;4973276;28;20027;-67
2021/12/08 03:50:54;;;;;;;0.10;0.10;;;4.10;99.90;;;;;;4974254;28;20035;-67
2021/12/08 03:53:20;;;;;;;0.43;0.43;;;4.10;99.90;;;;;;4973088;28;20384;-67
2021/12/08 03:55:49;;;;;;;0.10;0.10;;;4.10;99.90;;;;;;4974265;28;20496;-66
2021/12/08 03:58:16;;;;;;;0.10;0.10;;;4.10;99.90;;;;;;4973313;28;20067;-66
2021/12/08 04:00:44;;;;;;;0.00;0.00;;;4.10;99.90;;;;;;4972973;28;20066;-66
2021/12/08 04:03:12;;;;;;;0.10;0.10;;;4.10;99.90;;;;;;4973957;28;20050;-66
2021/12/08 04:05:53;;;;;;;0.00;0.00;;;4.00;99.90;;;;;;4974386;28;20388;-67
2021/12/08 04:08:31;;;;;;;0.00;0.00;;;4.10;99.90;;;;;;4972940;28;20031;-66
2021/12/08 04:11:00;;;;;;;0.00;0.00;;;4.00;99.90;;;;;;4974241;28;20046;-67
2021/12/08 04:13:34;;;;;;;0.00;0.00;;;4.00;99.90;;;;;;4973835;28;20104;-67
2021/12/08 04:16:00;;;;;;;0.10;0.10;;;4.00;99.90;;;;;;4972727;28;20057;-67
2021/12/08 04:18:26;;;;;;;0.10;0.10;;;4.00;99.90;;;;;;4972688;28;20030;-67
2021/12/08 04:20:57;;;;;;;2.63;1.85;;;4.00;99.90;;;;;;4973901;28;20031;-67
2021/12/08 04:23:26;;;;;;;0.10;0.10;;;4.00;99.90;;;;;;4956911;28;20042;-67
2021/12/08 04:26:00;;;;;;;0.03;0.03;;;4.00;99.90;;;;;;4972524;28;20041;-67
2021/12/08 04:28:31;;;;;;;0.00;0.00;;;3.90;99.90;;;;;;4974012;28;20077;-68
2021/12/08 04:31:04;;;;;;;;;;;4.00;99.90;;;;;;4973018;28;20042;-67
2021/12/08 04:33:32;;;;;;;0.00;0.00;;;3.90;99.90;;;;;;4973967;28;19918;-67
2021/12/08 04:35:58;;;;;;;0.15;0.15;;;3.90;99.90;;;;;;4973440;28;20503;-67
2021/12/08 04:38:33;;;;;;;0.10;0.10;;;3.90;99.90;;;;;;4956361;28;20081;-66
2021/12/08 04:41:08;;;;;;;0.00;0.00;;;3.90;99.90;;;;;;4956444;28;20069;-66
2021/12/08 04:43:53;;;;;;;0.10;0.10;;;3.90;99.90;;;;;;4973382;28;20027;-67
2021/12/08 04:46:55;;;;;;;0.08;0.08;;;3.90;99.90;;;;;;4971900;28;20495;-68
2021/12/08 04:52:11;;;;;;;0.10;0.10;;;4.00;99.90;;;;;;4973037;28;20039;-65
2021/12/08 05:06:24;;;;;;;0.00;0.00;;;3.80;99.90;;;;;;4972384;28;20106;-65
2021/12/08 05:08:56;;;;;;;0.10;0.10;;;3.80;99.90;;;;;;4958676;28;20118;-66
2021/12/08 05:11:33;;;;;;;1.70;1.48;;;3.90;99.90;;;;;;4973520;28;20039;-65
2021/12/08 05:14:15;;;;;;;0.20;0.20;;;3.90;99.90;;;;;;4973397;28;20031;-65
2021/12/08 05:16:46;;;;;;;0.10;0.10;;;3.90;99.90;;;;;;4972163;28;20035;-66
2021/12/08 05:19:18;;;;;;;0.00;0.00;;;3.90;99.90;;;;;;4973538;28;20085;-66
2021/12/08 05:21:55;;;;;;;0.05;0.05;;;3.90;99.90;;;;;;4973243;28;20043;-66
2021/12/08 05:24:32;;;;;;;0.00;0.00;;;3.90;99.90;;;;;;4972200;28;20081;-66
2021/12/08 05:27:13;;;;;;;0.05;0.05;;;3.90;99.90;;;;;;4972772;28;20034;-66
2021/12/08 05:29:51;;;;;;;0.10;0.10;;;4.00;99.90;;;;;;4972044;28;20069;-65
2021/12/08 05:32:19;;;;;;;0.10;0.10;;;3.90;99.90;;;;;;4972383;28;20091;-65
2021/12/08 05:34:46;;;;;;;1.38;0.60;;;4.00;99.90;;;;;;4971919;28;20031;-66
2021/12/08 05:37:15;;;;;;;0.10;0.10;;;4.00;99.90;;;;;;4972034;28;20046;-66
2021/12/08 05:39:42;;;;;;;0.10;0.10;;;4.00;99.90;;;;;;4971910;28;20385;-66
2021/12/08 05:42:15;;;;;;;0.10;0.10;;;4.00;99.90;;;;;;4971581;28;20034;-64
2021/12/08 05:44:42;;;;;;;0.10;0.10;;;4.00;99.90;;;;;;4971867;28;20039;-65
2021/12/08 05:47:18;;;;;;;0.20;0.20;;;4.00;99.90;;;;;;4971573;28;20126;-67
2021/12/08 05:49:44;;;;;;;0.10;0.10;;;4.10;99.90;;;;;;4972830;28;20039;-68
2021/12/08 05:52:11;;;;;;;0.03;0.03;;;4.10;99.90;;;;;;4972560;28;20023;-68
2021/12/08 05:54:40;;;;;;;0.10;0.10;;;4.20;99.90;;;;;;4968476;28;20043;-68
2021/12/08 05:57:25;;;;;;;0.10;0.10;;;4.20;99.90;;;;;;4971974;28;20039;-69
2021/12/08 05:59:55;;;;;;;0.10;0.10;;;4.20;99.90;;;;;;4972648;28;20031;-68
2021/12/08 06:02:27;;;;;;;0.00;0.00;;;4.20;99.90;;;;;;4974620;28;20085;-68
2021/12/08 06:04:53;;;;;;;0.00;0.00;;;4.20;99.90;;;;;;4974852;28;20065;-68
2021/12/08 06:07:21;;;;;;;0.10;0.10;;;4.30;99.90;;;;;;4975376;28;20030;-67
2021/12/08 06:09:54;;;;;;;0.00;0.00;;;4.20;99.90;;;;;;4976123;28;20400;-67
2021/12/08 06:12:20;;;;;;;0.75;0.75;;;4.20;99.90;;;;;;4974886;28;20041;-67
2021/12/08 06:14:46;;;;;;;0.00;0.00;;;4.20;99.90;;;;;;4976493;28;20034;-67
2021/12/08 06:17:17;;;;;;;0.00;0.00;;;4.30;99.90;;;;;;4974713;28;20554;-67
2021/12/08 06:19:46;;;;;;;0.10;0.10;;;4.30;99.90;;;;;;4976101;28;20039;-68
2021/12/08 06:22:15;;;;;;;0.30;0.30;;;4.40;99.90;;;;;;4974993;28;20038;-68
2021/12/08 06:24:41;;;;;;;0.10;0.10;;;4.40;99.90;;;;;;4976328;28;20046;-67
2021/12/08 06:27:07;;;;;;;1.45;1.10;;;4.40;99.90;;;;;;4974516;28;20038;-67
2021/12/08 06:29:35;;;;;;;0.90;0.90;;;4.40;99.90;;;;;;4975852;28;20049;-67
2021/12/08 06:32:04;;;;;;;0.35;0.35;;;4.50;99.90;;;;;;4974370;28;20037;-68
2021/12/08 06:34:32;;;;;;;0.10;0.10;;;4.50;99.90;;;;;;4974004;28;20380;-68
2021/12/08 06:37:23;;;;;;;0.10;0.10;;;4.40;99.90;;;;;;4974734;28;20490;-67
2021/12/08 06:39:55;;;;;;;;;;;4.40;99.90;;;;;;4975139;28;20034;-67
2021/12/08 06:42:25;;;;;;;;;;;4.40;99.90;;;;;;4990747;28;19914;-68
2021/12/08 06:44:53;;;;;;;0.00;0.00;;;4.30;99.90;;;;;;4975412;28;19918;-67
2021/12/08 06:47:24;;;;;;;0.25;0.25;;;4.20;99.90;;;;;;4975583;28;20039;-67
2021/12/08 06:49:54;;;;;;;0.03;0.03;;;4.20;99.90;;;;;;4974251;28;20033;-67
2021/12/08 06:52:27;;;;;;;0.10;0.10;;;4.20;99.90;;;;;;4974313;28;20046;-67
2021/12/08 06:55:07;;;;;;;0.10;0.10;;;4.10;99.90;;;;;;4975103;28;20042;-68
2021/12/08 06:57:42;;;;;;;0.40;0.40;;;4.20;99.90;;;;;;4974087;28;20042;-68
2021/12/08 07:00:50;;;;;;;0.32;0.32;;;4.10;99.90;;;;;;4973912;28;20109;-67
2021/12/08 07:06:13;;;;;;;0.05;0.05;;;4.10;99.90;;;;;;4975184;28;20030;-68
2021/12/08 07:08:51;;;;;;;0.75;0.75;;;4.20;99.90;;;;;;4973956;28;20088;-68
2021/12/08 07:11:22;;;;;;;0.20;0.20;;;4.30;99.90;;;;;;4973945;28;20406;-68
2021/12/08 07:13:51;;;;;;;0.10;0.10;;;4.40;99.90;;;;;;4974636;28;20039;-68
2021/12/08 07:16:23;;;;;;;0.00;0.00;;;4.30;99.90;;;;;;4974910;28;20045;-68
2021/12/08 07:19:24;;;;;;;0.30;0.30;;;4.20;99.90;;;;;;4975037;28;20062;-68
2021/12/08 07:21:52;;;;;;;0.40;0.40;;;4.20;99.90;;;;;;4944406;28;20492;-69
2021/12/08 07:24:32;;;;;;;0.10;0.10;;;4.20;99.90;;;;;;4975192;28;20118;-68
2021/12/08 07:27:04;;;;;;;0.10;0.10;;;4.10;99.90;;;;;;4973335;28;20483;-67
2021/12/08 07:29:34;;;;;;;0.52;0.52;;;4.10;99.90;;;;;;4973507;28;20031;-67
2021/12/08 07:32:20;;;;;;;0.10;0.10;;;4.10;99.90;;;;;;4974982;28;20037;-68
2021/12/08 07:34:51;;;;;;;0.00;0.00;;;4.10;99.90;;;;;;4974698;28;20042;-68
2021/12/08 07:37:24;;;;;;;0.10;0.10;;;4.20;99.90;;;;;;4973618;28;20403;-67
2021/12/08 07:40:06;;;;;;;0.10;0.10;;;4.20;99.90;;;;;;4973347;28;20039;-67
2021/12/08 07:43:07;;;;;;;2.72;1.13;;;4.30;99.90;;;;;;4974625;28;20041;-68
2021/12/08 07:45:43;;;;;;;0.00;0.00;;;4.30;99.90;;;;;;4973083;28;20121;-68
2021/12/08 07:48:20;;;;;;;0.15;0.15;;;4.30;99.90;;;;;;4973338;28;20035;-67
2021/12/08 07:51:09;;;;;;;0.08;0.08;;;4.30;99.90;;;;;;4973508;28;20045;-68
2021/12/08 07:53:35;;;;;;;0.20;0.20;;;4.20;99.90;;;;;;4974370;28;20126;-67
2021/12/08 07:56:08;;;;;;;0.13;0.13;;;4.10;99.90;;;;;;4974357;28;20531;-67
2021/12/08 07:58:39;;;;;;;0.10;0.10;;;4.20;99.90;;;;;;4973119;28;20042;-67
2021/12/08 08:01:34;;;;;;;0.40;0.40;;;4.20;99.90;;;;;;4973178;28;20038;-67
2021/12/08 08:04:05;;;;;;;0.00;0.00;;;4.20;99.90;;;;;;4959148;28;20035;-68
2021/12/08 08:06:37;;;;;;;0.00;0.00;;;4.20;99.90;;;;;;4972973;28;20046;-69
2021/12/08 08:09:12;;;;;;;0.90;0.90;;;4.20;99.90;;;;;;4972830;28;20038;-67
2021/12/08 08:11:44;;;;;;;0.10;0.10;;;4.30;99.90;;;;;;4972792;28;20122;-67
2021/12/08 08:14:15;;;;;;;0.28;0.28;;;4.30;99.90;;;;;;4972899;28;20023;-67
2021/12/08 08:16:42;;;;;;;;;;;4.30;99.90;;;;;;4974678;28;20093;-68
2021/12/08 08:19:15;;;;;;;0.63;0.63;;;4.30;99.90;;;;;;4974021;28;19914;-68
2021/12/08 08:21:49;;;;;;;0.10;0.10;;;4.40;99.90;;;;;;4974181;28;20114;-68
2021/12/08 08:24:17;;;;;;;0.10;0.10;;;4.40;99.90;;;;;;4972492;28;20034;-67
2021/12/08 08:26:50;;;;;;;0.03;0.03;;;4.50;99.90;;;;;;4973816;28;20110;-67
2021/12/08 08:29:16;;;;;;;0.10;0.10;;;4.50;99.90;;;;;;4974189;28;20038;-67
2021/12/08 08:31:56;;;;;;;0.00;0.00;;;4.60;99.90;;;;;;4973761;28;20031;-67
2021/12/08 08:34:22;;;;;;;0.00;0.00;;;4.60;99.90;;;;;;4957887;28;20035;-67
2021/12/08 08:36:49;;;;;;;0.10;0.10;;;4.70;99.90;;;;;;4973774;28;20023;-67
2021/12/08 08:39:28;;;;;;;0.75;0.75;;;4.80;99.90;;;;;;4973588;28;20088;-67
2021/12/08 08:42:02;;;;;;;0.10;0.10;;;4.90;99.90;;;;;;4972051;28;20031;-67
2021/12/08 08:44:58;;;;;;;0.10;0.10;;;4.90;99.90;;;;;;4972365;28;20027;-68
2021/12/08 08:47:33;;;;;;;0.30;0.30;;;5.00;99.90;;;;;;4973313;28;20057;-67
2021/12/08 08:49:59;;;;;;;1.02;0.98;;;5.10;99.90;;;;;;4973300;28;20051;-67
2021/12/08 08:52:37;;;;;;;0.00;0.00;;;5.10;99.90;;;;;;4972446;28;20034;-67
2021/12/08 08:55:19;;;;;;;0.00;0.00;;;5.20;99.90;;;;;;4973721;28;20031;-67
2021/12/08 08:57:47;;;;;;;0.30;0.30;;;5.20;99.90;;;;;;4971995;28;20126;-68
2021/12/08 09:00:25;;;;;;;0.32;0.32;;;5.20;99.90;;;;;;4973594;28;20035;-68
2021/12/08 09:02:56;;;;;;;0.05;0.05;;;5.30;99.90;;;;;;4972350;28;20122;-69
2021/12/08 09:05:36;;;;;;;0.20;0.20;;;5.40;99.90;;;;;;4973483;28;20041;-68
2021/12/08 09:08:06;;;;;;;1.17;1.08;;;5.40;99.90;;;;;;4972951;28;20057;-68
2021/12/08 09:10:47;;;;;;;0.10;0.10;;;5.50;99.90;;;;;;4973716;28;20130;-67
2021/12/08 09:13:48;;;;;;;0.15;0.15;;;5.60;99.90;;;;;;4971957;28;20089;-67
2021/12/08 09:16:25;;;;;;;0.00;0.00;;;5.60;99.90;;;;;;4972697;28;20077;-67
2021/12/08 09:19:03;;;;;;;0.30;0.30;;;5.60;99.90;;;;;;4971985;28;20035;-67
2021/12/08 09:21:38;;;;;;;0.55;0.52;;;5.60;99.90;;;;;;4973522;28;20521;-67
2021/12/08 09:24:23;;;;;;;0.10;0.10;;;5.70;99.90;;;;;;4972942;28;20038;-67
2021/12/08 09:26:54;;;;;;;0.30;0.30;;;5.60;99.90;;;;;;4972078;28;20031;-67
2021/12/08 09:29:30;;;;;;;0.40;0.40;;;5.70;99.90;;;;;;4971795;28;20023;-67
2021/12/08 09:32:09;;;;;;;0.13;0.13;;;5.70;99.90;;;;;;4973487;28;20027;-67
2021/12/08 09:34:45;;;;;;;0.10;0.10;;;5.70;99.90;;;;;;4971864;28;20034;-67
2021/12/08 09:37:19;;;;;;;0.10;0.10;;;5.70;99.90;;;;;;4974733;28;20147;-67
2021/12/08 09:40:11;;;;;;;0.52;0.52;;;5.80;99.90;;;;;;4959492;28;20391;-67
2021/12/08 09:42:52;;;;;;;0.10;0.10;;;5.70;99.90;;;;;;4977279;28;20031;-67
2021/12/08 09:45:21;;;;;;;;;;;5.70;99.90;;;;;;4976875;28;20050;-68
2021/12/08 09:47:47;;;;;;;0.10;0.10;;;5.70;99.90;;;;;;4975472;28;19918;-68
2021/12/08 09:50:15;;;;;;;0.10;0.10;;;5.80;99.90;;;;;;4975147;28;20038;-68
2021/12/08 09:52:45;;;;;;;0.00;0.00;;;5.70;99.90;;;;;;4976602;28;20476;-68
2021/12/08 09:55:15;;;;;;;0.10;0.10;;;5.80;99.90;;;;;;4976711;28;20031;-68
2021/12/08 09:57:42;;;;;;;0.10;0.10;;;5.80;99.90;;;;;;4975209;28;20507;-67
2021/12/08 10:00:17;;;;;;;0.57;0.57;;;5.80;99.90;;;;;;4976416;28;20063;-67
2021/12/08 10:02:43;;;;;;;0.22;0.22;;;5.80;99.90;;;;;;4976745;28;20051;-68
2021/12/08 10:05:15;;;;;;;0.10;0.10;;;5.80;99.90;;;;;;4976241;28;20023;-67
2021/12/08 10:07:42;;;;;;;2.80;1.75;;;5.80;99.90;;;;;;4976662;28;20034;-67
2021/12/08 10:10:13;;;;;;;0.10;0.10;;;5.80;99.90;;;;;;4976155;28;20034;-67
2021/12/08 10:12:39;;;;;;;0.60;0.60;;;5.80;99.90;;;;;;4976107;28;20439;-66
2021/12/08 10:15:10;;;;;;;0.05;0.05;;;5.80;99.90;;;;;;4975171;28;20037;-67
2021/12/08 10:17:36;;;;;;;0.10;0.10;;;5.80;99.90;;;;;;4975048;28;20408;-67
2021/12/08 10:20:18;;;;;;;0.00;0.00;;;5.80;99.90;;;;;;4975906;28;20115;-67
2021/12/08 10:22:48;;;;;;;0.20;0.20;;;5.70;99.90;;;;;;4976019;28;20027;-66
2021/12/08 10:25:21;;;;;;;0.00;0.00;;;5.70;99.90;;;;;;4975851;28;20034;-67
2021/12/08 10:28:14;;;;;;;0.10;0.10;;;5.70;99.90;;;;;;4975877;28;20133;-67
2021/12/08 10:30:53;;;;;;;0.00;0.00;;;5.70;99.90;;;;;;4976210;28;20037;-66
2021/12/08 10:34:02;;;;;;;0.10;0.10;;;5.70;99.90;;;;;;4975655;28;20033;-67
2021/12/08 10:37:05;;;;;;;4.18;1.85;;;5.70;99.90;;;;;;4974836;28;20039;-67
2021/12/08 10:39:48;;;;;;;0.43;0.43;;;5.80;99.90;;;;;;4975562;28;20047;-67
2021/12/08 10:42:28;;;;;;;0.00;0.00;;;5.80;99.90;;;;;;4975533;28;20035;-67
2021/12/08 10:45:10;;;;;;;0.20;0.20;;;5.80;99.90;;;;;;4975694;28;20034;-67
2021/12/08 10:47:39;;;;;;;0.10;0.10;;;5.80;99.90;;;;;;4974992;28;20387;-67
2021/12/08 10:56:19;;;;;;;0.10;0.10;;;5.70;99.90;;;;;;4975147;28;20163;-67
2021/12/08 10:58:50;;;;;;;0.00;0.00;;;5.70;99.90;;;;;;4974859;28;20426;-67
2021/12/08 11:01:26;;;;;;;0.10;0.10;;;5.70;99.90;;;;;;4974948;28;20039;-69
2021/12/08 11:04:06;;;;;;;0.30;0.30;;;5.70;99.90;;;;;;4975256;28;20031;-67
2021/12/08 11:06:38;;;;;;;0.00;0.00;;;5.70;99.90;;;;;;4975109;28;20039;-67
2021/12/08 11:09:18;;;;;;;0.00;0.00;;;5.70;99.90;;;;;;4975515;28;20037;-67
2021/12/08 11:11:46;;;;;;;0.10;0.10;;;5.80;99.90;;;;;;4958851;28;20554;-67
2021/12/08 11:14:14;;;;;;;0.10;0.10;;;5.80;99.90;;;;;;4975037;28;20092;-67
2021/12/08 11:16:43;;;;;;;0.40;0.40;;;5.80;99.90;;;;;;4974984;28;20121;-68
2021/12/08 11:19:19;;;;;;;0.90;0.90;;;5.80;99.90;;;;;;4974770;28;20027;-68
2021/12/08 11:21:55;;;;;;;0.15;0.15;;;5.90;99.90;;;;;;4973752;28;20110;-68
2021/12/08 11:24:33;;;;;;;0.38;0.38;;;5.90;99.90;;;;;;4973784;28;20510;-66
2021/12/08 11:27:06;;;;;;;0.10;0.10;;;5.90;99.90;;;;;;4975098;28;20031;-67
2021/12/08 11:29:37;;;;;;;0.90;0.90;;;5.90;99.90;;;;;;4973727;28;20090;-67
2021/12/08 11:32:07;;;;;;;0.15;0.15;;;5.90;99.90;;;;;;4973449;28;20035;-67
2021/12/08 11:34:37;;;;;;;0.30;0.30;;;6.00;99.90;;;;;;4973562;28;20380;-70
2021/12/08 11:37:13;;;;;;;0.15;0.15;;;6.00;99.90;;;;;;4974665;28;20073;-67
2021/12/08 11:39:55;;;;;;;0.10;0.10;;;6.00;99.90;;;;;;4958123;28;20030;-67
2021/12/08 11:42:35;;;;;;;0.00;0.00;;;6.10;99.90;;;;;;4957783;28;20368;-67
2021/12/08 11:45:15;;;;;;;1.83;1.73;;;6.10;99.90;;;;;;4974568;28;20051;-67
2021/12/08 11:47:44;;;;;;;0.10;0.10;;;6.00;99.90;;;;;;4973537;28;20121;-66
2021/12/08 11:50:22;;;;;;;0.20;0.20;;;6.10;99.90;;;;;;4974279;28;20030;-67
2021/12/08 11:52:55;;;;;;;0.77;0.70;;;6.20;99.90;;;;;;4975264;28;20046;-67
2021/12/08 11:55:24;;;;;;;1.15;1.02;;;6.10;99.90;;;;;;4973087;28;20035;-68
2021/12/08 11:57:57;;;;;;;0.25;0.25;;;6.20;99.90;;;;;;4973024;28;20034;-68
2021/12/08 12:00:33;;;;;;;0.52;0.52;;;6.10;99.90;;;;;;4971994;28;20121;-68
2021/12/08 12:03:02;;;;;;;0.55;0.55;;;6.10;99.90;;;;;;4974436;28;20031;-68
2021/12/08 12:05:40;;;;;;;0.05;0.05;;;6.00;99.90;;;;;;4973005;28;20061;-68
2021/12/08 12:08:10;;;;;;;0.17;0.17;;;6.10;99.90;;;;;;4973971;28;20035;-67
2021/12/08 12:10:47;;;;;;;0.50;0.20;;;6.10;99.90;;;;;;4972986;28;20039;-68
2021/12/08 12:13:13;;;;;;;0.35;0.35;;;6.10;99.90;;;;;;4972738;28;20043;-66
2021/12/08 12:15:44;;;;;;;0.00;0.00;;;6.10;99.90;;;;;;4973094;28;20101;-68
2021/12/08 12:18:11;;;;;;;0.00;0.00;;;6.10;99.90;;;;;;4973554;28;20031;-69
2021/12/08 12:20:41;;;;;;;0.10;0.10;;;6.20;99.90;;;;;;4974015;28;20118;-68
2021/12/08 12:23:59;;;;;;;0.10;0.10;;;6.00;99.90;;;;;;4972803;28;20121;-68
2021/12/08 12:26:55;;;;;;;0.17;0.17;;;6.00;99.90;;;;;;4973586;28;20042;-68
2021/12/08 12:29:56;;;;;;;0.10;0.10;;;5.90;99.90;;;;;;4972506;28;20034;-67
2021/12/08 12:32:31;;;;;;;;;;;5.90;99.90;;;;;;4973769;28;20439;-68
2021/12/08 12:35:15;;;;;;;0.47;0.47;;;5.90;99.90;;;;;;4973854;28;19924;-68
2021/12/08 12:37:43;;;;;;;1.55;1.45;;;5.90;99.90;;;;;;4973441;28;20121;-68
2021/12/08 12:40:18;;;;;;;0.08;0.08;;;5.90;99.90;;;;;;4973485;28;20567;-68
2021/12/08 12:42:56;;;;;;;0.00;0.00;;;6.00;99.90;;;;;;4972148;28;20085;-68
2021/12/08 12:45:24;;;;;;;0.65;0.65;;;5.90;99.90;;;;;;4973410;28;20043;-66
2021/12/08 12:48:14;;;;;;;0.10;0.10;;;5.90;99.90;;;;;;4972449;28;20038;-68
2021/12/08 12:51:06;;;;;;;1.38;1.27;;;6.00;99.90;;;;;;4973804;28;20039;-68
2021/12/08 12:53:51;;;;;;;0.10;0.10;;;6.00;99.90;;;;;;4973617;28;20476;-68
2021/12/08 12:56:37;;;;;;;0.28;0.28;;;6.00;99.90;;;;;;4973332;28;20125;-67
2021/12/08 12:59:16;;;;;;;0.20;0.20;;;5.90;99.90;;;;;;4973096;28;20070;-72
2021/12/08 13:01:46;;;;;;;0.00;0.00;;;6.00;99.90;;;;;;4973196;28;20174;-67
2021/12/08 13:04:25;;;;;;;0.52;0.52;;;6.00;99.90;;;;;;4971720;28;20062;-67
2021/12/08 13:07:03;;;;;;;0.10;0.10;;;6.00;99.90;;;;;;4973461;28;20031;-67
2021/12/08 13:09:53;;;;;;;1.85;1.75;;;6.20;99.90;;;;;;4971999;28;20042;-67
2021/12/08 13:12:41;;;;;;;0.00;0.00;;;6.20;99.90;;;;;;4976595;28;20030;-67
2021/12/08 13:15:17;;;;;;;0.00;0.00;;;6.20;99.90;;;;;;4977192;28;20042;-67
2021/12/08 13:17:59;;;;;;;1.27;1.13;;;6.10;99.90;;;;;;4977173;28;20046;-67
2021/12/08 13:20:27;;;;;;;0.10;0.10;;;6.00;99.90;;;;;;4977217;28;20030;-67
2021/12/08 13:22:56;;;;;;;0.47;0.47;;;6.10;99.90;;;;;;4977319;28;20027;-67
2021/12/08 13:25:28;;;;;;;0.80;0.80;;;6.10;99.90;;;;;;4976810;28;20035;-67
2021/12/08 13:28:06;;;;;;;0.10;0.10;;;6.10;99.90;;;;;;4977215;28;20042;-67
2021/12/08 13:30:33;;;;;;;0.45;0.45;;;6.00;99.90;;;;;;4975662;28;20035;-67
2021/12/08 13:33:08;;;;;;;0.10;0.10;;;6.10;99.90;;;;;;4977171;28;20058;-67
2021/12/08 13:35:36;;;;;;;0.17;0.17;;;6.10;99.90;;;;;;4975495;28;20035;-67
2021/12/08 13:38:04;;;;;;;0.10;0.10;;;6.30;99.90;;;;;;4975863;28;20055;-67
2021/12/08 13:40:50;;;;;;;0.13;0.13;;;6.20;99.90;;;;;;4975485;28;20042;-67
2021/12/08 13:43:36;;;;;;;0.10;0.10;;;6.30;99.90;;;;;;4976806;28;20034;-67
2021/12/08 13:46:05;;;;;;;0.13;0.13;;;6.30;99.90;;;;;;4976353;28;20047;-67
2021/12/08 13:48:30;;;;;;;0.00;0.00;;;6.30;99.90;;;;;;4976206;28;20034;-68
2021/12/08 13:51:21;;;;;;;0.43;0.43;;;6.30;99.90;;;;;;4976547;28;20046;-67
2021/12/08 13:54:26;;;;;;;2.13;1.95;;;6.20;99.90;;;;;;4976734;28;20089;-67
2021/12/08 13:56:54;;;;;;;0.00;0.00;;;6.10;99.90;;;;;;4976412;28;20066;-68
2021/12/08 13:59:56;;;;;;;0.70;0.70;;;6.10;99.90;;;;;;4978374;28;20130;-67
2021/12/08 14:02:25;;;;;;;0.00;0.00;;;6.00;99.90;;;;;;4980883;28;20488;-68
2021/12/08 14:05:06;;;;;;;0.03;0.03;;;6.00;99.90;;;;;;4976753;28;20109;-67
2021/12/08 14:07:33;;;;;;;;;;;5.90;99.90;;;;;;4975554;28;20046;-67
2021/12/08 14:10:04;;;;;;;2.67;1.80;;;5.90;99.90;;;;;;4976393;28;19918;-67
2021/12/08 14:12:51;;;;;;;0.03;0.03;;;5.90;99.90;;;;;;4976452;28;20038;-67